sensor_id;sensor_type;location;lat;lon;timestamp;pressure;altitude;pressure_sealevel;temperature;humidity
2875;BME280;1445;52.600;13.328;2023-02-04T00:00:44;101637.88;;;2.86;100.00
2875;BME280;1445;52.600;13.328;2023-02-04T00:03:10;101655.75;;;2.82;100.00
2875;BME280;1445;52.600;13.328;2023-02-04T00:05:36;101663.53;;;2.79;100.00
2875;BME280;1445;52.600;13.328;2023-02-04T00:08:01;101668.16;;;2.78;100.00
2875;BME280;1445;52.600;13.328;2023-02-04T00:10:27;101666.63;;;2.82;100.00
2875;BME280;1445;52.600;13.328;2023-02-04T00:12:53;101677.97;;;2.79;100.00
2875;BME280;1445;52.600;13.328;2023-02-04T00:15:18;101683.28;;;2.74;100.00
2875;BME280;1445;52.600;13.328;2023-02-04T00:17:44;101701.47;;;2.74;100.00
2875;BME280;1445;52.600;13.328;2023-02-04T00:20:10;101703.94;;;2.82;100.00
2875;BME280;1445;52.600;13.328;2023-02-04T00:22:35;101715.41;;;2.84;100.00
2875;BME280;1445;52.600;13.328;2023-02-04T00:25:01;101730.41;;;2.75;100.00
2875;BME280;1445;52.600;13.328;2023-02-04T00:27:26;101724.94;;;2.75;100.00
2875;BME280;1445;52.600;13.328;2023-02-04T00:29:52;101744.44;;;2.72;100.00
2875;BME280;1445;52.600;13.328;2023-02-04T00:32:17;101760.72;;;2.78;100.00
2875;BME280;1445;52.600;13.328;2023-02-04T00:34:43;101772.75;;;2.71;100.00
2875;BME280;1445;52.600;13.328;2023-02-04T00:37:08;101786.03;;;2.35;100.00
2875;BME280;1445;52.600;13.328;2023-02-04T00:39:33;101794.41;;;2.02;100.00
2875;BME280;1445;52.600;13.328;2023-02-04T00:41:59;101796.81;;;1.85;100.00
2875;BME280;1445;52.600;13.328;2023-02-04T00:44:25;101814.00;;;1.79;100.00
2875;BME280;1445;52.600;13.328;2023-02-04T00:46:50;101824.94;;;1.66;100.00
2875;BME280;1445;52.600;13.328;2023-02-04T00:49:15;101836.22;;;1.63;100.00
2875;BME280;1445;52.600;13.328;2023-02-04T00:51:41;101850.03;;;1.61;100.00
2875;BME280;1445;52.600;13.328;2023-02-04T00:54:10;101861.53;;;1.63;100.00
2875;BME280;1445;52.600;13.328;2023-02-04T00:56:36;101865.50;;;1.61;100.00
2875;BME280;1445;52.600;13.328;2023-02-04T00:59:02;101883.50;;;1.62;100.00
2875;BME280;1445;52.600;13.328;2023-02-04T01:01:28;101882.22;;;1.64;100.00
2875;BME280;1445;52.600;13.328;2023-02-04T01:03:54;101896.06;;;1.56;100.00
2875;BME280;1445;52.600;13.328;2023-02-04T01:06:19;101902.13;;;1.52;100.00
2875;BME280;1445;52.600;13.328;2023-02-04T01:08:45;101920.69;;;1.61;100.00
2875;BME280;1445;52.600;13.328;2023-02-04T01:11:10;101923.63;;;1.60;100.00
2875;BME280;1445;52.600;13.328;2023-02-04T01:13:36;101938.47;;;1.57;100.00
2875;BME280;1445;52.600;13.328;2023-02-04T01:16:01;101938.72;;;1.49;100.00
2875;BME280;1445;52.600;13.328;2023-02-04T01:18:27;101944.16;;;1.49;100.00
2875;BME280;1445;52.600;13.328;2023-02-04T01:20:52;101956.91;;;1.49;100.00
2875;BME280;1445;52.600;13.328;2023-02-04T01:23:18;101960.88;;;1.46;100.00
2875;BME280;1445;52.600;13.328;2023-02-04T01:25:43;101972.97;;;1.50;100.00
2875;BME280;1445;52.600;13.328;2023-02-04T01:28:09;101992.63;;;1.52;100.00
2875;BME280;1445;52.600;13.328;2023-02-04T01:30:34;101995.56;;;1.51;100.00
2875;BME280;1445;52.600;13.328;2023-02-04T01:32:59;101993.47;;;1.53;100.00
2875;BME280;1445;52.600;13.328;2023-02-04T01:35:25;102017.28;;;1.57;100.00
2875;BME280;1445;52.600;13.328;2023-02-04T01:37:50;102013.56;;;1.52;100.00
2875;BME280;1445;52.600;13.328;2023-02-04T01:40:16;102014.78;;;1.42;100.00
2875;BME280;1445;52.600;13.328;2023-02-04T01:42:42;102025.25;;;1.32;100.00
2875;BME280;1445;52.600;13.328;2023-02-04T01:45:08;102031.09;;;1.29;100.00
2875;BME280;1445;52.600;13.328;2023-02-04T01:47:34;102047.81;;;1.26;100.00
2875;BME280;1445;52.600;13.328;2023-02-04T01:49:59;102043.41;;;1.25;100.00
2875;BME280;1445;52.600;13.328;2023-02-04T01:52:27;102058.88;;;1.18;100.00
2875;BME280;1445;52.600;13.328;2023-02-04T01:54:54;102074.72;;;1.08;100.00
2875;BME280;1445;52.600;13.328;2023-02-04T01:57:20;102082.88;;;1.08;100.00
2875;BME280;1445;52.600;13.328;2023-02-04T01:59:46;102091.84;;;1.02;100.00
2875;BME280;1445;52.600;13.328;2023-02-04T02:02:44;102111.28;;;0.99;100.00
2875;BME280;1445;52.600;13.328;2023-02-04T02:05:13;102121.72;;;1.02;100.00
2875;BME280;1445;52.600;13.328;2023-02-04T02:07:39;102118.75;;;0.90;100.00
2875;BME280;1445;52.600;13.328;2023-02-04T02:10:06;102119.81;;;0.89;100.00
2875;BME280;1445;52.600;13.328;2023-02-04T02:12:32;102120.00;;;0.87;100.00
2875;BME280;1445;52.600;13.328;2023-02-04T02:14:58;102126.47;;;0.86;100.00
2875;BME280;1445;52.600;13.328;2023-02-04T02:17:24;102135.84;;;0.84;100.00
2875;BME280;1445;52.600;13.328;2023-02-04T02:19:50;102145.03;;;0.83;100.00
2875;BME280;1445;52.600;13.328;2023-02-04T02:25:10;102160.91;;;0.79;100.00
2875;BME280;1445;52.600;13.328;2023-02-04T02:27:36;102167.78;;;0.75;100.00
2875;BME280;1445;52.600;13.328;2023-02-04T02:30:02;102172.94;;;0.70;100.00
2875;BME280;1445;52.600;13.328;2023-02-04T02:32:27;102171.94;;;0.71;100.00
2875;BME280;1445;52.600;13.328;2023-02-04T02:34:53;102176.72;;;0.69;100.00
2875;BME280;1445;52.600;13.328;2023-02-04T02:37:18;102180.06;;;0.71;100.00
2875;BME280;1445;52.600;13.328;2023-02-04T02:39:44;102181.97;;;0.70;100.00
2875;BME280;1445;52.600;13.328;2023-02-04T02:42:16;102186.09;;;0.66;100.00
2875;BME280;1445;52.600;13.328;2023-02-04T02:44:43;102194.66;;;0.70;100.00
2875;BME280;1445;52.600;13.328;2023-02-04T02:47:14;102207.19;;;0.64;100.00
2875;BME280;1445;52.600;13.328;2023-02-04T02:49:41;102211.38;;;0.67;100.00
2875;BME280;1445;52.600;13.328;2023-02-04T02:52:10;102214.72;;;0.69;100.00
2875;BME280;1445;52.600;13.328;2023-02-04T02:54:36;102221.38;;;0.66;100.00
2875;BME280;1445;52.600;13.328;2023-02-04T02:57:02;102227.78;;;0.59;100.00
2875;BME280;1445;52.600;13.328;2023-02-04T02:59:27;102230.94;;;0.62;100.00
2875;BME280;1445;52.600;13.328;2023-02-04T03:02:00;102232.84;;;0.62;100.00
2875;BME280;1445;52.600;13.328;2023-02-04T03:04:28;102242.84;;;0.61;100.00
2875;BME280;1445;52.600;13.328;2023-02-04T03:06:55;102248.22;;;0.55;100.00
2875;BME280;1445;52.600;13.328;2023-02-04T03:09:21;102250.94;;;0.55;100.00
2875;BME280;1445;52.600;13.328;2023-02-04T03:11:47;102256.13;;;0.50;100.00
2875;BME280;1445;52.600;13.328;2023-02-04T03:14:13;102259.03;;;0.48;100.00
2875;BME280;1445;52.600;13.328;2023-02-04T03:16:39;102265.13;;;0.50;100.00
2875;BME280;1445;52.600;13.328;2023-02-04T03:19:05;102264.66;;;0.46;100.00
2875;BME280;1445;52.600;13.328;2023-02-04T03:21:31;102282.38;;;0.42;100.00
2875;BME280;1445;52.600;13.328;2023-02-04T03:23:57;102289.47;;;0.43;100.00
2875;BME280;1445;52.600;13.328;2023-02-04T03:26:24;102296.78;;;0.43;100.00
2875;BME280;1445;52.600;13.328;2023-02-04T03:28:51;102306.78;;;0.42;100.00
2875;BME280;1445;52.600;13.328;2023-02-04T03:31:17;102311.63;;;0.47;100.00
2875;BME280;1445;52.600;13.328;2023-02-04T03:33:42;102317.19;;;0.39;100.00
2875;BME280;1445;52.600;13.328;2023-02-04T03:36:08;102318.28;;;0.44;100.00
2875;BME280;1445;52.600;13.328;2023-02-04T03:38:34;102327.84;;;0.40;100.00
2875;BME280;1445;52.600;13.328;2023-02-04T03:40:59;102338.91;;;0.39;100.00
2875;BME280;1445;52.600;13.328;2023-02-04T03:43:25;102359.13;;;0.36;100.00
2875;BME280;1445;52.600;13.328;2023-02-04T03:45:50;102368.69;;;0.32;100.00
2875;BME280;1445;52.600;13.328;2023-02-04T03:48:16;102379.78;;;0.37;100.00
2875;BME280;1445;52.600;13.328;2023-02-04T03:50:41;102382.50;;;0.37;100.00
2875;BME280;1445;52.600;13.328;2023-02-04T03:53:07;102390.00;;;0.35;100.00
2875;BME280;1445;52.600;13.328;2023-02-04T03:55:33;102399.41;;;0.39;100.00
2875;BME280;1445;52.600;13.328;2023-02-04T03:57:58;102404.56;;;0.34;100.00
2875;BME280;1445;52.600;13.328;2023-02-04T04:00:24;102415.88;;;0.38;100.00
2875;BME280;1445;52.600;13.328;2023-02-04T04:02:49;102420.47;;;0.37;100.00
2875;BME280;1445;52.600;13.328;2023-02-04T04:05:14;102420.47;;;0.37;100.00
2875;BME280;1445;52.600;13.328;2023-02-04T04:07:40;102427.19;;;0.41;100.00
2875;BME280;1445;52.600;13.328;2023-02-04T04:10:06;102430.34;;;0.45;100.00
2875;BME280;1445;52.600;13.328;2023-02-04T04:12:31;102429.19;;;0.54;100.00
2875;BME280;1445;52.600;13.328;2023-02-04T04:14:57;102445.28;;;0.56;100.00
2875;BME280;1445;52.600;13.328;2023-02-04T04:17:22;102447.75;;;0.51;100.00
2875;BME280;1445;52.600;13.328;2023-02-04T04:19:47;102453.69;;;0.39;100.00
2875;BME280;1445;52.600;13.328;2023-02-04T04:22:13;102459.75;;;0.41;100.00
2875;BME280;1445;52.600;13.328;2023-02-04T04:24:39;102465.38;;;0.40;100.00
2875;BME280;1445;52.600;13.328;2023-02-04T04:27:04;102471.25;;;0.43;100.00
2875;BME280;1445;52.600;13.328;2023-02-04T04:29:30;102476.41;;;0.38;100.00
2875;BME280;1445;52.600;13.328;2023-02-04T04:31:55;102480.34;;;0.36;100.00
2875;BME280;1445;52.600;13.328;2023-02-04T04:34:21;102492.78;;;0.30;100.00
2875;BME280;1445;52.600;13.328;2023-02-04T04:36:46;102496.44;;;0.37;100.00
2875;BME280;1445;52.600;13.328;2023-02-04T04:39:12;102502.44;;;0.33;100.00
2875;BME280;1445;52.600;13.328;2023-02-04T04:41:37;102510.94;;;0.30;100.00
2875;BME280;1445;52.600;13.328;2023-02-04T04:44:03;102519.00;;;0.23;100.00
2875;BME280;1445;52.600;13.328;2023-02-04T04:46:28;102527.03;;;0.31;100.00
2875;BME280;1445;52.600;13.328;2023-02-04T04:48:53;102536.94;;;0.24;100.00
2875;BME280;1445;52.600;13.328;2023-02-04T04:51:19;102541.06;;;0.20;100.00
2875;BME280;1445;52.600;13.328;2023-02-04T04:53:44;102549.78;;;0.15;100.00
2875;BME280;1445;52.600;13.328;2023-02-04T04:56:10;102555.94;;;0.09;100.00
2875;BME280;1445;52.600;13.328;2023-02-04T04:58:35;102562.41;;;0.08;100.00
2875;BME280;1445;52.600;13.328;2023-02-04T05:01:00;102563.63;;;0.06;100.00
2875;BME280;1445;52.600;13.328;2023-02-04T05:03:26;102570.06;;;0.05;100.00
2875;BME280;1445;52.600;13.328;2023-02-04T05:05:51;102581.28;;;0.02;100.00
2875;BME280;1445;52.600;13.328;2023-02-04T05:08:17;102589.22;;;0.03;100.00
2875;BME280;1445;52.600;13.328;2023-02-04T05:10:43;102587.91;;;-0.01;100.00
2875;BME280;1445;52.600;13.328;2023-02-04T05:13:09;102581.75;;;0.05;100.00
2875;BME280;1445;52.600;13.328;2023-02-04T05:15:34;102597.19;;;0.05;100.00
2875;BME280;1445;52.600;13.328;2023-02-04T05:18:00;102598.75;;;-0.01;100.00
2875;BME280;1445;52.600;13.328;2023-02-04T05:20:27;102603.91;;;-0.06;100.00
2875;BME280;1445;52.600;13.328;2023-02-04T05:22:52;102603.34;;;-0.02;100.00
2875;BME280;1445;52.600;13.328;2023-02-04T05:25:20;102603.91;;;-0.06;100.00
2875;BME280;1445;52.600;13.328;2023-02-04T05:27:46;102617.47;;;-0.06;100.00
2875;BME280;1445;52.600;13.328;2023-02-04T05:30:13;102619.03;;;-0.12;100.00
2875;BME280;1445;52.600;13.328;2023-02-04T05:32:38;102630.81;;;-0.05;100.00
2875;BME280;1445;52.600;13.328;2023-02-04T05:35:04;102637.19;;;-0.12;100.00
2875;BME280;1445;52.600;13.328;2023-02-04T05:37:30;102644.84;;;-0.16;100.00
2875;BME280;1445;52.600;13.328;2023-02-04T05:39:56;102648.84;;;-0.12;100.00
2875;BME280;1445;52.600;13.328;2023-02-04T05:42:21;102657.34;;;-0.15;100.00
2875;BME280;1445;52.600;13.328;2023-02-04T05:44:47;102657.06;;;-0.20;100.00
2875;BME280;1445;52.600;13.328;2023-02-04T05:47:13;102669.59;;;-0.19;100.00
2875;BME280;1445;52.600;13.328;2023-02-04T05:49:39;102674.53;;;-0.22;100.00
2875;BME280;1445;52.600;13.328;2023-02-04T05:52:04;102686.78;;;-0.27;100.00
2875;BME280;1445;52.600;13.328;2023-02-04T05:54:30;102681.63;;;-0.21;100.00
2875;BME280;1445;52.600;13.328;2023-02-04T05:56:55;102686.41;;;-0.23;100.00
2875;BME280;1445;52.600;13.328;2023-02-04T05:59:20;102685.00;;;-0.19;100.00
2875;BME280;1445;52.600;13.328;2023-02-04T06:01:46;102692.22;;;-0.12;100.00
2875;BME280;1445;52.600;13.328;2023-02-04T06:04:11;102703.38;;;-0.07;100.00
2875;BME280;1445;52.600;13.328;2023-02-04T06:06:37;102717.00;;;-0.15;100.00
2875;BME280;1445;52.600;13.328;2023-02-04T06:09:03;102721.09;;;-0.19;100.00
2875;BME280;1445;52.600;13.328;2023-02-04T06:11:28;102724.66;;;-0.18;100.00
2875;BME280;1445;52.600;13.328;2023-02-04T06:13:53;102731.94;;;-0.19;100.00
2875;BME280;1445;52.600;13.328;2023-02-04T06:16:19;102727.91;;;-0.23;100.00
2875;BME280;1445;52.600;13.328;2023-02-04T06:18:44;102737.06;;;-0.24;100.00
2875;BME280;1445;52.600;13.328;2023-02-04T06:21:10;102735.84;;;-0.21;100.00
2875;BME280;1445;52.600;13.328;2023-02-04T06:23:35;102749.94;;;-0.26;100.00
2875;BME280;1445;52.600;13.328;2023-02-04T06:26:01;102743.50;;;-0.25;100.00
2875;BME280;1445;52.600;13.328;2023-02-04T06:28:27;102745.19;;;-0.24;100.00
2875;BME280;1445;52.600;13.328;2023-02-04T06:30:52;102754.66;;;-0.20;100.00
2875;BME280;1445;52.600;13.328;2023-02-04T06:33:17;102760.69;;;-0.10;100.00
2875;BME280;1445;52.600;13.328;2023-02-04T06:35:43;102765.31;;;-0.18;100.00
2875;BME280;1445;52.600;13.328;2023-02-04T06:38:08;102767.38;;;-0.20;100.00
2875;BME280;1445;52.600;13.328;2023-02-04T06:40:34;102766.53;;;-0.21;100.00
2875;BME280;1445;52.600;13.328;2023-02-04T06:42:59;102766.88;;;-0.24;100.00
2875;BME280;1445;52.600;13.328;2023-02-04T06:45:25;102766.41;;;-0.28;100.00
2875;BME280;1445;52.600;13.328;2023-02-04T06:47:50;102762.34;;;-0.32;100.00
2875;BME280;1445;52.600;13.328;2023-02-04T06:50:15;102766.91;;;-0.32;100.00
2875;BME280;1445;52.600;13.328;2023-02-04T06:52:44;102766.28;;;-0.34;100.00
2875;BME280;1445;52.600;13.328;2023-02-04T06:55:14;102772.69;;;-0.35;100.00
2875;BME280;1445;52.600;13.328;2023-02-04T06:57:39;102766.75;;;-0.31;100.00
2875;BME280;1445;52.600;13.328;2023-02-04T07:00:06;102777.13;;;-0.34;100.00
2875;BME280;1445;52.600;13.328;2023-02-04T07:02:31;102770.19;;;-0.37;100.00
2875;BME280;1445;52.600;13.328;2023-02-04T07:04:57;102776.44;;;-0.36;100.00
2875;BME280;1445;52.600;13.328;2023-02-04T07:07:25;102771.22;;;-0.38;100.00
2875;BME280;1445;52.600;13.328;2023-02-04T07:09:50;102776.69;;;-0.23;100.00
2875;BME280;1445;52.600;13.328;2023-02-04T07:12:15;102784.03;;;-0.09;100.00
2875;BME280;1445;52.600;13.328;2023-02-04T07:14:41;102788.44;;;-0.08;100.00
2875;BME280;1445;52.600;13.328;2023-02-04T07:17:06;102794.88;;;-0.09;100.00
2875;BME280;1445;52.600;13.328;2023-02-04T07:19:31;102798.09;;;-0.05;100.00
2875;BME280;1445;52.600;13.328;2023-02-04T07:21:57;102806.34;;;0.02;100.00
2875;BME280;1445;52.600;13.328;2023-02-04T07:24:23;102809.34;;;0.07;100.00
2875;BME280;1445;52.600;13.328;2023-02-04T07:26:49;102816.41;;;0.16;100.00
2875;BME280;1445;52.600;13.328;2023-02-04T07:29:15;102821.16;;;0.14;100.00
2875;BME280;1445;52.600;13.328;2023-02-04T07:31:41;102818.63;;;0.12;100.00
2875;BME280;1445;52.600;13.328;2023-02-04T07:34:06;102826.91;;;0.19;100.00
2875;BME280;1445;52.600;13.328;2023-02-04T07:36:31;102833.84;;;0.21;100.00
2875;BME280;1445;52.600;13.328;2023-02-04T07:38:57;102835.78;;;0.28;100.00
2875;BME280;1445;52.600;13.328;2023-02-04T07:41:22;102845.94;;;0.34;100.00
2875;BME280;1445;52.600;13.328;2023-02-04T07:43:48;102853.50;;;0.38;100.00
2875;BME280;1445;52.600;13.328;2023-02-04T07:46:13;102862.88;;;0.36;100.00
2875;BME280;1445;52.600;13.328;2023-02-04T07:48:38;102858.22;;;0.44;100.00
2875;BME280;1445;52.600;13.328;2023-02-04T07:51:04;102867.88;;;0.47;100.00
2875;BME280;1445;52.600;13.328;2023-02-04T07:53:29;102871.53;;;0.54;100.00
2875;BME280;1445;52.600;13.328;2023-02-04T07:55:55;102876.06;;;0.62;100.00
2875;BME280;1445;52.600;13.328;2023-02-04T07:58:20;102875.03;;;0.63;100.00
2875;BME280;1445;52.600;13.328;2023-02-04T08:00:46;102886.66;;;0.71;100.00
2875;BME280;1445;52.600;13.328;2023-02-04T08:03:12;102879.63;;;0.77;100.00
2875;BME280;1445;52.600;13.328;2023-02-04T08:05:37;102891.84;;;0.81;100.00
2875;BME280;1445;52.600;13.328;2023-02-04T08:08:03;102898.59;;;0.85;100.00
2875;BME280;1445;52.600;13.328;2023-02-04T08:10:28;102894.47;;;0.89;100.00
2875;BME280;1445;52.600;13.328;2023-02-04T08:12:53;102909.28;;;1.02;100.00
2875;BME280;1445;52.600;13.328;2023-02-04T08:15:19;102911.16;;;1.01;100.00
2875;BME280;1445;52.600;13.328;2023-02-04T08:17:44;102910.53;;;0.99;100.00
2875;BME280;1445;52.600;13.328;2023-02-04T08:20:10;102915.66;;;1.09;100.00
2875;BME280;1445;52.600;13.328;2023-02-04T08:22:38;102914.88;;;1.23;100.00
2875;BME280;1445;52.600;13.328;2023-02-04T08:25:04;102912.78;;;1.25;100.00
2875;BME280;1445;52.600;13.328;2023-02-04T08:27:30;102928.34;;;1.46;100.00
2875;BME280;1445;52.600;13.328;2023-02-04T08:29:55;102931.28;;;1.45;100.00
2875;BME280;1445;52.600;13.328;2023-02-04T08:32:20;102936.34;;;1.48;100.00
2875;BME280;1445;52.600;13.328;2023-02-04T08:34:46;102934.94;;;1.52;100.00
2875;BME280;1445;52.600;13.328;2023-02-04T08:37:13;102939.88;;;1.63;100.00
2875;BME280;1445;52.600;13.328;2023-02-04T08:39:38;102937.63;;;1.81;100.00
2875;BME280;1445;52.600;13.328;2023-02-04T08:42:08;102936.88;;;1.87;100.00
2875;BME280;1445;52.600;13.328;2023-02-04T08:44:34;102938.25;;;1.98;100.00
2875;BME280;1445;52.600;13.328;2023-02-04T08:46:59;102939.75;;;2.01;100.00
2875;BME280;1445;52.600;13.328;2023-02-04T08:49:25;102939.75;;;2.01;100.00
2875;BME280;1445;52.600;13.328;2023-02-04T08:51:50;102933.94;;;2.04;100.00
2875;BME280;1445;52.600;13.328;2023-02-04T08:54:16;102933.25;;;2.17;100.00
2875;BME280;1445;52.600;13.328;2023-02-04T08:56:41;102937.63;;;2.32;100.00
2875;BME280;1445;52.600;13.328;2023-02-04T08:59:06;102940.91;;;2.28;100.00
2875;BME280;1445;52.600;13.328;2023-02-04T09:01:32;102943.06;;;2.32;100.00
2875;BME280;1445;52.600;13.328;2023-02-04T09:03:57;102927.69;;;2.25;100.00
2875;BME280;1445;52.600;13.328;2023-02-04T09:06:22;102936.44;;;2.42;100.00
2875;BME280;1445;52.600;13.328;2023-02-04T09:08:48;102933.78;;;2.48;100.00
2875;BME280;1445;52.600;13.328;2023-02-04T09:11:13;102936.06;;;2.66;100.00
2875;BME280;1445;52.600;13.328;2023-02-04T09:13:39;102938.97;;;2.86;100.00
2875;BME280;1445;52.600;13.328;2023-02-04T09:16:05;102938.00;;;2.94;100.00
2875;BME280;1445;52.600;13.328;2023-02-04T09:18:30;102937.22;;;3.00;100.00
2875;BME280;1445;52.600;13.328;2023-02-04T09:20:57;102931.47;;;3.16;100.00
2875;BME280;1445;52.600;13.328;2023-02-04T09:23:22;102932.09;;;3.18;100.00
2875;BME280;1445;52.600;13.328;2023-02-04T09:25:48;102937.84;;;3.30;100.00
2875;BME280;1445;52.600;13.328;2023-02-04T09:28:14;102937.97;;;3.50;100.00
2875;BME280;1445;52.600;13.328;2023-02-04T09:30:42;102935.94;;;3.58;100.00
2875;BME280;1445;52.600;13.328;2023-02-04T09:33:08;102941.00;;;3.68;100.00
2875;BME280;1445;52.600;13.328;2023-02-04T09:35:34;102933.97;;;3.80;100.00
2875;BME280;1445;52.600;13.328;2023-02-04T09:38:00;102933.31;;;3.78;100.00
2875;BME280;1445;52.600;13.328;2023-02-04T09:40:42;102940.31;;;3.94;100.00
2875;BME280;1445;52.600;13.328;2023-02-04T09:43:12;102936.88;;;4.34;100.00
2875;BME280;1445;52.600;13.328;2023-02-04T09:45:39;102935.50;;;4.03;100.00
2875;BME280;1445;52.600;13.328;2023-02-04T09:48:05;102937.22;;;4.11;100.00
2875;BME280;1445;52.600;13.328;2023-02-04T09:50:32;102928.63;;;4.14;100.00
2875;BME280;1445;52.600;13.328;2023-02-04T09:53:03;102929.13;;;4.37;100.00
2875;BME280;1445;52.600;13.328;2023-02-04T09:55:32;102921.78;;;4.51;100.00
2875;BME280;1445;52.600;13.328;2023-02-04T09:57:58;102921.38;;;4.47;100.00
2875;BME280;1445;52.600;13.328;2023-02-04T10:00:26;102921.16;;;4.49;100.00
2875;BME280;1445;52.600;13.328;2023-02-04T10:02:52;102926.44;;;4.64;100.00
2875;BME280;1445;52.600;13.328;2023-02-04T10:05:29;102923.09;;;4.75;100.00
2875;BME280;1445;52.600;13.328;2023-02-04T10:07:55;102923.50;;;4.78;100.00
2875;BME280;1445;52.600;13.328;2023-02-04T10:10:22;102924.16;;;4.74;100.00
2875;BME280;1445;52.600;13.328;2023-02-04T10:12:51;102928.56;;;5.01;100.00
2875;BME280;1445;52.600;13.328;2023-02-04T10:15:19;102921.19;;;5.15;100.00
2875;BME280;1445;52.600;13.328;2023-02-04T10:17:47;102922.44;;;5.19;100.00
2875;BME280;1445;52.600;13.328;2023-02-04T10:20:18;102925.81;;;5.28;100.00
2875;BME280;1445;52.600;13.328;2023-02-04T10:22:45;102926.88;;;5.14;100.00
2875;BME280;1445;52.600;13.328;2023-02-04T10:25:17;102927.28;;;5.24;100.00
2875;BME280;1445;52.600;13.328;2023-02-04T10:27:57;102937.13;;;5.52;100.00
2875;BME280;1445;52.600;13.328;2023-02-04T10:30:31;102933.81;;;5.23;100.00
2875;BME280;1445;52.600;13.328;2023-02-04T10:33:34;102925.16;;;5.19;100.00
2875;BME280;1445;52.600;13.328;2023-02-04T10:36:03;102938.22;;;4.97;100.00
2875;BME280;1445;52.600;13.328;2023-02-04T10:38:29;102946.44;;;4.77;100.00
2875;BME280;1445;52.600;13.328;2023-02-04T10:41:04;102938.88;;;4.99;100.00
2875;BME280;1445;52.600;13.328;2023-02-04T10:43:30;102944.66;;;5.69;100.00
2875;BME280;1445;52.600;13.328;2023-02-04T10:46:00;102938.69;;;5.86;100.00
2875;BME280;1445;52.600;13.328;2023-02-04T10:48:26;102936.44;;;6.28;100.00
2875;BME280;1445;52.600;13.328;2023-02-04T10:50:55;102939.44;;;6.19;100.00
2875;BME280;1445;52.600;13.328;2023-02-04T10:53:22;102939.34;;;5.94;100.00
2875;BME280;1445;52.600;13.328;2023-02-04T10:56:17;102942.81;;;5.50;100.00
2875;BME280;1445;52.600;13.328;2023-02-04T10:58:45;102948.94;;;5.25;100.00
2875;BME280;1445;52.600;13.328;2023-02-04T11:01:12;102944.34;;;5.06;100.00
2875;BME280;1445;52.600;13.328;2023-02-04T11:03:39;102945.16;;;4.87;100.00
2875;BME280;1445;52.600;13.328;2023-02-04T11:06:11;102948.53;;;5.29;100.00
2875;BME280;1445;52.600;13.328;2023-02-04T11:08:37;102954.38;;;5.59;100.00
2875;BME280;1445;52.600;13.328;2023-02-04T11:11:03;102952.63;;;5.84;100.00
2875;BME280;1445;52.600;13.328;2023-02-04T11:18:50;102956.84;;;6.32;100.00
2875;BME280;1445;52.600;13.328;2023-02-04T11:21:43;102955.97;;;6.38;100.00
2875;BME280;1445;52.600;13.328;2023-02-04T11:26:41;102964.50;;;5.52;100.00
2875;BME280;1445;52.600;13.328;2023-02-04T11:39:22;102974.75;;;6.34;100.00
2875;BME280;1445;52.600;13.328;2023-02-04T11:41:48;102975.75;;;6.85;100.00
2875;BME280;1445;52.600;13.328;2023-02-04T11:44:15;102973.50;;;7.00;100.00
2875;BME280;1445;52.600;13.328;2023-02-04T11:46:41;102974.88;;;6.84;100.00
2875;BME280;1445;52.600;13.328;2023-02-04T11:49:17;102977.41;;;7.36;100.00
2875;BME280;1445;52.600;13.328;2023-02-04T11:51:43;102978.16;;;7.68;100.00
2875;BME280;1445;52.600;13.328;2023-02-04T11:54:11;102977.94;;;7.51;100.00
2875;BME280;1445;52.600;13.328;2023-02-04T11:56:37;102982.94;;;6.79;100.00
2875;BME280;1445;52.600;13.328;2023-02-04T11:59:02;102996.69;;;6.73;100.00
2875;BME280;1445;52.600;13.328;2023-02-04T12:01:32;103000.03;;;6.43;100.00
2875;BME280;1445;52.600;13.328;2023-02-04T12:04:00;102993.81;;;6.16;100.00
2875;BME280;1445;52.600;13.328;2023-02-04T12:06:31;102995.97;;;6.45;100.00
2875;BME280;1445;52.600;13.328;2023-02-04T12:09:21;102988.84;;;6.76;100.00
2875;BME280;1445;52.600;13.328;2023-02-04T12:11:55;102977.69;;;6.78;100.00
2875;BME280;1445;52.600;13.328;2023-02-04T12:14:33;102978.06;;;7.13;100.00
2875;BME280;1445;52.600;13.328;2023-02-04T12:16:59;102988.34;;;7.17;100.00
2875;BME280;1445;52.600;13.328;2023-02-04T12:19:25;102982.34;;;7.71;100.00
2875;BME280;1445;52.600;13.328;2023-02-04T12:21:51;102978.63;;;7.40;100.00
2875;BME280;1445;52.600;13.328;2023-02-04T12:24:16;102976.88;;;7.89;100.00
2875;BME280;1445;52.600;13.328;2023-02-04T12:26:42;102976.22;;;8.42;100.00
2875;BME280;1445;52.600;13.328;2023-02-04T12:29:07;102982.09;;;8.27;100.00
2875;BME280;1445;52.600;13.328;2023-02-04T12:31:34;102988.19;;;9.78;100.00
2875;BME280;1445;52.600;13.328;2023-02-04T12:34:00;102983.59;;;9.02;100.00
2875;BME280;1445;52.600;13.328;2023-02-04T12:36:26;102996.59;;;8.83;100.00
2875;BME280;1445;52.600;13.328;2023-02-04T12:38:54;102999.75;;;8.38;100.00
2875;BME280;1445;52.600;13.328;2023-02-04T12:41:19;102999.91;;;8.43;100.00
2875;BME280;1445;52.600;13.328;2023-02-04T12:43:45;103000.66;;;7.58;100.00
2875;BME280;1445;52.600;13.328;2023-02-04T12:46:10;103002.00;;;6.99;100.00
2875;BME280;1445;52.600;13.328;2023-02-04T12:48:36;103003.25;;;7.28;100.00
2875;BME280;1445;52.600;13.328;2023-02-04T12:51:05;103003.13;;;6.91;100.00
2875;BME280;1445;52.600;13.328;2023-02-04T12:53:31;103001.84;;;6.87;100.00
2875;BME280;1445;52.600;13.328;2023-02-04T12:55:56;103009.91;;;6.44;100.00
2875;BME280;1445;52.600;13.328;2023-02-04T12:58:22;103014.38;;;6.32;100.00
2875;BME280;1445;52.600;13.328;2023-02-04T13:00:47;103014.91;;;6.60;100.00
2875;BME280;1445;52.600;13.328;2023-02-04T13:03:12;103020.19;;;7.18;100.00
2875;BME280;1445;52.600;13.328;2023-02-04T13:05:38;103007.88;;;7.28;100.00
2875;BME280;1445;52.600;13.328;2023-02-04T13:08:03;103017.59;;;6.29;100.00
2875;BME280;1445;52.600;13.328;2023-02-04T13:10:29;103016.56;;;6.10;100.00
2875;BME280;1445;52.600;13.328;2023-02-04T13:12:54;103018.94;;;6.00;100.00
2875;BME280;1445;52.600;13.328;2023-02-04T13:15:20;103024.19;;;5.88;100.00